LIBD/BRI METAR and TAF weather

Enter ICAO airport designator
Station Type Date Time Source
LIBD METAR 2020/02/27 13:50 UTC NOAA

LIBD 271350Z 29010KT 9999 FEW020 11/00 Q1014


Station Type Date Time Source
LIBD Decoded METAR 2020/02/27 13:50 UTC NOAA

Bari / Palese Macchie, Italy (LIBD) 41-08N 016-47E 49M
Feb 27, 2020 - 08:50 AM EST / 2020.02.27 1350 UTC
Wind: from the WNW (290 degrees) at 12 MPH (10 KT):0
Visibility: greater than 7 mile(s):0
Sky conditions: mostly clear
Temperature: 51 F (11 C)
Dew Point: 32 F (0 C)
Relative Humidity: 46%
Pressure (altimeter): 29.94 in. Hg (1014 hPa)
ob: LIBD 271350Z 29010KT 9999 FEW020 11/00 Q1014
cycle: 14

Station Type Date Time Source
LIBD TAF 2020/02/27 12:21 UTC NOAA

TAF LIBD 271100Z 2712/2812 26018G28KT 9999 SCT030
BECMG 2712/2714 34012KT
BECMG 2716/2718 19012KT
TEMPO 2800/2806 RA
BECMG 2805/2808 33020G30KT

Example: see airport list